Time;durP1;ratioP1;P1;durP2;ratioP2;P2;SDS_P1;SDS_P2;PMS_P1;PMS_P2;Temp;Humidity;BMP_temperature;BMP_pressure;BME280_temperature;BME280_humidity;BME280_pressure;Samples;Min_cycle;Max_cycle;Signal;HPM_P1;HPM_P2
2022/07/25 00:02:15;;;;;;;4.18;3.08;;;;;;;26.60;45.39;98658.25;5089037;28;20069;-72
2022/07/25 00:04:41;;;;;;;6.57;3.75;;;;;;;26.60;45.86;98664.53;5090083;28;20299;-70
2022/07/25 00:07:07;;;;;;;8.07;3.55;;;;;;;26.61;45.45;98666.16;5088526;28;20025;-71
2022/07/25 00:09:33;;;;;;;4.78;3.70;;;;;;;26.63;45.70;98657.75;5090161;28;20028;-71
2022/07/25 00:11:58;;;;;;;5.18;3.30;;;;;;;26.63;45.22;98655.06;5088234;28;20180;-70
2022/07/25 00:14:24;;;;;;;5.45;3.65;;;;;;;26.64;45.52;98656.69;5086670;28;20239;-71
2022/07/25 00:16:50;;;;;;;9.45;3.53;;;;;;;26.63;45.40;98655.06;5089704;28;20280;-68
2022/07/25 00:19:15;;;;;;;6.03;4.05;;;;;;;26.60;45.45;98648.25;5087779;28;20077;-71
2022/07/25 00:21:41;;;;;;;8.88;4.07;;;;;;;26.64;45.38;98649.38;5089436;28;20055;-70
2022/07/25 00:24:06;;;;;;;6.68;4.10;;;;;;;26.63;45.43;98645.00;5089930;28;20162;-71
2022/07/25 00:26:32;;;;;;;4.70;3.88;;;;;;;26.62;45.55;98650.69;5088400;28;20050;-72
2022/07/25 00:28:57;;;;;;;3.78;2.95;;;;;;;26.60;45.69;98642.81;5089553;28;20058;-71
2022/07/25 00:31:23;;;;;;;6.05;3.90;;;;;;;26.60;45.55;98642.81;5089799;28;20028;-71
2022/07/25 00:33:48;;;;;;;5.10;3.38;;;;;;;26.60;45.59;98647.41;5089249;28;20038;-71
2022/07/25 00:36:14;;;;;;;5.35;3.17;;;;;;;26.60;45.63;98636.56;5089322;28;20260;-71
2022/07/25 00:38:39;;;;;;;5.28;4.30;;;;;;;26.59;45.54;98637.63;5089444;28;20141;-71
2022/07/25 00:41:05;;;;;;;4.10;3.70;;;;;;;26.57;45.60;98640.59;5088550;28;20024;-70
2022/07/25 00:43:30;;;;;;;6.57;3.70;;;;;;;26.57;45.67;98640.59;5086438;28;20032;-71
2022/07/25 00:45:57;;;;;;;4.70;3.55;;;;;;;26.56;45.63;98636.25;5089484;28;20035;-72
2022/07/25 00:48:23;;;;;;;7.40;3.50;;;;;;;26.55;45.61;98631.88;5086119;28;20083;-72
2022/07/25 00:50:49;;;;;;;5.38;3.30;;;;;;;26.56;45.64;98624.53;5088826;28;20017;-72
2022/07/25 00:53:14;;;;;;;6.32;3.55;;;;;;;26.55;45.55;98636.47;5088738;28;20066;-72
2022/07/25 00:55:40;;;;;;;5.60;3.95;;;;;;;26.54;45.58;98632.94;5088940;28;20137;-72
2022/07/25 00:58:05;;;;;;;4.60;3.22;;;;;;;26.54;45.62;98632.94;5089114;28;20021;-73
2022/07/25 01:00:31;;;;;;;7.38;3.50;;;;;;;26.54;45.67;98640.28;5087259;28;20012;-72
2022/07/25 01:02:57;;;;;;;3.95;3.30;;;;;;;26.53;45.51;98639.44;5088811;28;20141;-71
2022/07/25 01:05:22;;;;;;;3.85;3.40;;;;;;;26.50;45.61;98635.34;5089131;28;20020;-72
2022/07/25 01:07:48;;;;;;;5.28;3.40;;;;;;;26.49;45.67;98641.00;5088856;28;20271;-72
2022/07/25 01:10:14;;;;;;;3.75;3.45;;;;;;;26.46;46.00;98626.03;5088425;28;20032;-72
2022/07/25 01:12:57;;;;;;;3.88;3.42;;;;;;;26.47;46.28;98630.41;5088271;28;20032;-72
2022/07/25 01:15:24;;;;;;;4.05;3.60;;;;;;;26.52;46.26;98634.28;5087146;28;20066;-71
2022/07/25 01:17:50;;;;;;;5.18;3.70;;;;;;;26.55;46.56;98641.88;5088585;28;20065;-71
2022/07/25 01:20:18;;;;;;;4.05;3.33;;;;;;;26.58;46.63;98638.69;5088286;28;20044;-71
2022/07/25 01:22:43;;;;;;;6.82;3.75;;;;;;;26.60;46.52;98639.25;5087081;28;20092;-71
2022/07/25 01:25:10;;;;;;;3.83;3.33;;;;;;;26.62;46.59;98637.13;5088691;28;20036;-71
2022/07/25 01:27:36;;;;;;;4.47;3.40;;;;;;;26.64;46.57;98637.72;5083448;28;20083;-70
2022/07/25 01:30:05;;;;;;;6.90;3.60;;;;;;;26.66;46.62;98641.00;5086491;28;20078;-71
2022/07/25 01:32:30;;;;;;;6.30;3.60;;;;;;;26.68;46.39;98641.56;5076269;28;20042;-70
2022/07/25 01:34:56;;;;;;;7.82;3.40;;;;;;;26.68;46.43;98636.16;5087917;28;20171;-71
2022/07/25 01:37:21;;;;;;;7.30;3.60;;;;;;;26.67;46.51;98648.06;5087817;28;20028;-71
2022/07/25 01:41:22;;;;;;;5.15;3.40;;;;;;;26.63;46.63;98645.00;5200091;27;20231;-70
2022/07/25 01:43:47;;;;;;;6.38;3.83;;;;;;;26.64;46.63;98654.78;5162912;27;20220;-71
2022/07/25 01:46:13;;;;;;;4.43;3.08;;;;;;;26.63;46.54;98653.16;5165141;27;20295;-70
2022/07/25 01:48:39;;;;;;;4.95;3.42;;;;;;;26.63;46.50;98655.06;5166162;27;20022;-71
2022/07/25 01:51:05;;;;;;;6.40;4.00;;;;;;;26.61;46.59;98651.75;5166806;27;20029;-71
2022/07/25 01:53:30;;;;;;;7.57;4.18;;;;;;;26.60;46.45;98655.53;5166247;27;20046;-71
2022/07/25 01:55:56;;;;;;;5.18;3.38;;;;;;;26.60;46.48;98644.69;5166604;27;20067;-71
2022/07/25 01:58:21;;;;;;;9.02;3.85;;;;;;;26.61;46.59;98654.47;5164761;27;20026;-71
2022/07/25 02:00:47;;;;;;;6.03;4.13;;;;;;;26.60;46.65;98650.13;5166403;27;20026;-71
2022/07/25 02:03:31;;;;;;;9.63;3.78;;;;;;;26.60;46.44;98636.56;5166472;27;20083;-71
2022/07/25 02:06:06;;;;;;;5.03;3.45;;;;;;;26.60;46.38;98642.81;5166521;27;20026;-71
2022/07/25 02:08:32;;;;;;;4.20;3.17;;;;;;;26.60;46.41;98641.97;5164653;27;20139;-70
2022/07/25 02:10:57;;;;;;;6.07;3.53;;;;;;;26.62;46.32;98645.28;5166411;27;20029;-70
2022/07/25 02:13:23;;;;;;;6.18;3.78;;;;;;;26.62;46.28;98651.50;5167228;27;20227;-71
2022/07/25 02:15:49;;;;;;;6.18;3.58;;;;;;;26.63;46.44;98646.91;5164589;27;20057;-71
2022/07/25 02:18:15;;;;;;;4.38;3.58;;;;;;;26.65;46.29;98640.16;5148562;27;20132;-70
2022/07/25 02:20:41;;;;;;;7.43;3.85;;;;;;;26.66;46.16;98647.22;5145412;28;20023;-71
2022/07/25 02:23:07;;;;;;;4.82;3.60;;;;;;;26.64;46.34;98637.72;5127426;28;20103;-71
2022/07/25 02:25:33;;;;;;;5.53;3.38;;;;;;;26.66;46.29;98649.13;5157936;27;20015;-71
2022/07/25 02:27:59;;;;;;;5.10;4.15;;;;;;;26.66;46.24;98652.66;5164114;27;20029;-71
2022/07/25 02:30:25;;;;;;;4.22;3.58;;;;;;;26.68;46.34;98652.44;5165902;27;20034;-71
2022/07/25 02:32:50;;;;;;;4.15;3.72;;;;;;;26.68;46.16;98646.16;5165742;27;20011;-70
2022/07/25 02:35:16;;;;;;;5.57;3.85;;;;;;;26.68;46.24;98654.31;5165700;27;20106;-71
2022/07/25 02:37:41;;;;;;;6.43;4.13;;;;;;;26.67;46.34;98653.50;5165311;27;20135;-70
2022/07/25 02:40:08;;;;;;;7.68;3.35;;;;;;;26.66;46.38;98655.38;5164198;27;20285;-71
2022/07/25 02:42:33;;;;;;;5.65;4.32;;;;;;;26.65;46.44;98648.31;5165647;27;20098;-71
2022/07/25 02:44:58;;;;;;;7.25;3.50;;;;;;;26.63;46.42;98649.63;5165743;27;20026;-70
2022/07/25 02:47:24;;;;;;;7.72;4.28;;;;;;;26.63;46.61;98647.72;5165627;27;20075;-71
2022/07/25 02:49:49;;;;;;;4.68;3.00;;;;;;;26.61;46.45;98639.03;5160201;27;20054;-71
2022/07/25 02:52:15;;;;;;;9.90;4.30;;;;;;;26.61;46.43;98639.03;5153890;27;20041;-71
2022/07/25 02:54:41;;;;;;;5.63;3.88;;;;;;;26.62;46.52;98639.84;5151637;27;20050;-71
2022/07/25 02:57:06;;;;;;;5.22;4.03;;;;;;;26.64;46.54;98646.66;5151100;27;20038;-71
2022/07/25 02:59:32;;;;;;;3.92;3.28;;;;;;;26.68;46.42;98651.59;5151551;27;20072;-71
2022/07/25 03:01:58;;;;;;;6.25;4.10;;;;;;;26.68;46.34;98646.16;5151368;27;20023;-71
2022/07/25 03:04:23;;;;;;;6.28;3.42;;;;;;;26.68;46.35;98638.88;5149090;27;20041;-71
2022/07/25 03:06:49;;;;;;;9.77;3.53;;;;;;;26.68;46.47;98638.88;5151346;27;20249;-71
2022/07/25 03:09:14;;;;;;;7.05;4.53;;;;;;;26.67;46.55;98639.94;5151252;27;20101;-71
2022/07/25 03:11:39;;;;;;;5.68;3.85;;;;;;;26.67;46.44;98637.22;5150856;27;20042;-71
2022/07/25 03:14:07;;;;;;;6.75;3.80;;;;;;;26.68;46.54;98633.44;5150515;27;20031;-71
2022/07/25 03:16:32;;;;;;;5.22;3.38;;;;;;;26.71;46.30;98638.34;5150953;27;20101;-71
2022/07/25 03:18:58;;;;;;;5.85;3.83;;;;;;;26.74;46.40;98640.56;5150997;27;20031;-71
2022/07/25 03:21:23;;;;;;;4.65;3.28;;;;;;;26.78;46.26;98625.44;5149365;27;20033;-71
2022/07/25 03:23:49;;;;;;;5.80;3.40;;;;;;;26.91;46.00;98631.59;5150821;27;20079;-70
2022/07/25 03:26:15;;;;;;;5.03;3.72;;;;;;;27.07;45.85;98633.44;5150939;27;20037;-70
2022/07/25 03:28:41;;;;;;;6.97;4.30;;;;;;;27.22;45.33;98630.09;5150245;27;20071;-69
2022/07/25 03:31:06;;;;;;;5.00;3.35;;;;;;;27.36;45.14;98627.81;5150736;27;20228;-71
2022/07/25 03:33:32;;;;;;;5.65;3.63;;;;;;;27.42;45.13;98628.69;5149113;27;20027;-71
2022/07/25 03:35:57;;;;;;;6.53;4.70;;;;;;;27.44;45.03;98623.84;5150925;27;20026;-71
2022/07/25 03:38:23;;;;;;;5.55;3.30;;;;;;;27.50;44.88;98635.63;5148365;27;20113;-70
2022/07/25 03:40:49;;;;;;;8.07;3.50;;;;;;;27.54;44.55;98631.31;5150349;27;20035;-70
2022/07/25 03:43:15;;;;;;;4.93;3.05;;;;;;;27.60;44.41;98637.63;5149725;27;20140;-72
2022/07/25 03:45:40;;;;;;;6.32;3.50;;;;;;;27.62;44.54;98640.91;5150767;27;20030;-71
2022/07/25 03:48:06;;;;;;;6.47;3.90;;;;;;;27.64;44.39;98641.50;5149613;27;20037;-71
2022/07/25 03:50:31;;;;;;;4.25;3.72;;;;;;;27.67;44.49;98636.34;5150632;27;20094;-70
2022/07/25 03:52:56;;;;;;;8.65;4.15;;;;;;;27.72;44.46;98641.00;5150031;27;20087;-71
2022/07/25 03:55:22;;;;;;;3.70;2.78;;;;;;;27.76;44.25;98641.31;5150575;27;20029;-71
2022/07/25 03:57:47;;;;;;;9.77;3.65;;;;;;;27.76;44.19;98635.88;5150213;27;20235;-71
2022/07/25 04:00:13;;;;;;;10.00;4.78;;;;;;;27.80;44.23;98642.47;5150368;27;20031;-71
2022/07/25 04:02:39;;;;;;;5.85;4.10;;;;;;;27.83;44.45;98639.22;5149248;27;20034;-71
2022/07/25 04:05:06;;;;;;;7.60;3.70;;;;;;;27.81;44.29;98644.91;5149776;27;20019;-70
2022/07/25 04:07:31;;;;;;;8.30;4.00;;;;;;;27.81;44.44;98634.03;5150219;27;20031;-71
2022/07/25 04:09:57;;;;;;;6.43;4.00;;;;;;;27.82;44.50;98634.88;5150259;27;20026;-72
2022/07/25 04:12:23;;;;;;;7.28;3.85;;;;;;;27.80;44.38;98637.03;5149790;27;20031;-72
2022/07/25 04:14:48;;;;;;;6.70;3.60;;;;;;;27.77;43.98;98634.81;5150121;27;20089;-72
2022/07/25 04:17:14;;;;;;;5.03;3.47;;;;;;;27.75;44.60;98639.66;5149887;27;20022;-71
2022/07/25 04:19:39;;;;;;;4.95;4.40;;;;;;;27.71;44.42;98625.78;5148242;27;20023;-72
2022/07/25 04:22:05;;;;;;;7.78;4.65;;;;;;;27.72;44.69;98624.72;5149955;27;20110;-71
2022/07/25 04:24:30;;;;;;;8.38;4.22;;;;;;;27.76;44.82;98628.56;5149387;27;20031;-71
2022/07/25 04:26:56;;;;;;;8.30;4.40;;;;;;;27.84;44.55;98630.00;5143663;27;20034;-71
2022/07/25 04:29:21;;;;;;;12.05;4.65;;;;;;;27.89;44.45;98632.75;5129294;28;20264;-71
2022/07/25 04:31:47;;;;;;;5.63;3.58;;;;;;;27.92;44.17;98632.25;5133536;27;20019;-71
2022/07/25 04:34:12;;;;;;;6.28;3.45;;;;;;;28.01;44.26;98627.97;5152478;27;20121;-71
2022/07/25 04:36:38;;;;;;;8.63;3.78;;;;;;;28.14;43.54;98629.47;5146294;27;20019;-71
2022/07/25 04:39:03;;;;;;;4.80;3.33;;;;;;;28.32;43.25;98624.72;5148418;27;20023;-71
2022/07/25 04:41:29;;;;;;;6.10;3.42;;;;;;;28.57;43.16;98629.53;5147933;27;20211;-70
2022/07/25 04:43:55;;;;;;;7.53;3.75;;;;;;;28.89;42.28;98625.97;5149534;27;20210;-71
2022/07/25 04:46:21;;;;;;;10.40;4.10;;;;;;;29.16;41.80;98635.06;5149560;27;20165;-71
2022/07/25 04:48:47;;;;;;;6.22;3.40;;;;;;;29.38;41.52;98635.72;5140032;27;20020;-71
2022/07/25 04:51:13;;;;;;;5.07;3.13;;;;;;;29.55;40.90;98629.25;5128791;28;20061;-71
2022/07/25 04:53:38;;;;;;;4.28;3.50;;;;;;;29.68;40.90;98626.00;5138775;27;20023;-71
2022/07/25 04:56:05;;;;;;;9.52;3.70;;;;;;;29.81;40.84;98619.19;5149302;27;20034;-71
2022/07/25 04:58:31;;;;;;;4.82;3.97;;;;;;;29.97;40.33;98628.25;5133595;27;20012;-71
2022/07/25 05:00:57;;;;;;;5.90;3.92;;;;;;;30.12;40.14;98626.63;5128630;28;20072;-71
2022/07/25 05:03:23;;;;;;;4.72;3.58;;;;;;;30.19;40.13;98631.81;5139285;27;20019;-70
2022/07/25 05:05:49;;;;;;;4.80;3.20;;;;;;;30.29;40.00;98629.06;5149228;27;20027;-71
2022/07/25 05:08:14;;;;;;;6.18;3.70;;;;;;;30.36;39.88;98632.34;5148900;27;20064;-70
2022/07/25 05:10:40;;;;;;;5.43;3.65;;;;;;;30.41;39.53;98626.88;5149015;27;20091;-71
2022/07/25 05:13:05;;;;;;;8.85;3.05;;;;;;;30.48;39.81;98625.78;5147275;27;20043;-71
2022/07/25 05:15:30;;;;;;;4.45;3.47;;;;;;;30.52;39.56;98626.84;5148628;27;20034;-71
2022/07/25 05:17:56;;;;;;;4.15;3.15;;;;;;;30.54;39.64;98625.53;5128355;28;20020;-71
2022/07/25 05:20:21;;;;;;;5.82;3.60;;;;;;;30.57;39.77;98621.44;5137277;27;20019;-71
2022/07/25 05:22:47;;;;;;;3.97;3.28;;;;;;;30.61;39.34;98619.78;5148819;27;20027;-70
2022/07/25 05:25:13;;;;;;;4.43;3.10;;;;;;;30.66;39.44;98622.50;5148883;27;20019;-70
2022/07/25 05:27:39;;;;;;;5.53;3.78;;;;;;;30.70;39.24;98622.78;5147817;27;20019;-70
2022/07/25 05:30:05;;;;;;;5.85;3.47;;;;;;;30.69;39.48;98632.06;5148814;27;20267;-70
2022/07/25 05:32:31;;;;;;;6.30;3.40;;;;;;;30.72;39.33;98626.84;5148555;27;20019;-71
2022/07/25 05:34:56;;;;;;;6.30;3.47;;;;;;;30.76;39.00;98627.13;5148773;27;20041;-71
2022/07/25 05:37:22;;;;;;;3.53;2.95;;;;;;;30.72;39.53;98626.84;5146448;27;20034;-71
2022/07/25 05:39:47;;;;;;;6.93;3.63;;;;;;;30.68;39.50;98622.25;5148364;28;20027;-71
2022/07/25 05:42:13;;;;;;;4.72;3.20;;;;;;;30.52;39.62;98626.84;5148105;28;20094;-73
2022/07/25 05:44:39;;;;;;;4.40;3.33;;;;;;;30.25;40.14;98622.50;5148391;28;20019;-70
2022/07/25 05:47:09;;;;;;;4.47;3.10;;;;;;;30.28;40.23;98621.97;5146795;28;20038;-70
2022/07/25 05:49:35;;;;;;;4.28;3.60;;;;;;;30.25;39.88;98617.06;5132531;28;20038;-71
2022/07/25 05:52:01;;;;;;;4.18;3.10;;;;;;;29.99;40.40;98620.63;5127955;27;20042;-69
2022/07/25 05:54:26;;;;;;;5.28;3.50;;;;;;;29.83;40.73;98611.56;5147776;28;20088;-70
2022/07/25 05:56:52;;;;;;;4.30;3.60;;;;;;;30.03;40.38;98615.44;5146816;28;20023;-69
2022/07/25 05:59:17;;;;;;;5.68;3.40;;;;;;;30.05;40.65;98617.88;5148503;28;20025;-71
2022/07/25 06:01:43;;;;;;;4.93;3.35;;;;;;;29.86;40.93;98617.56;5148433;27;20019;-69
2022/07/25 06:04:08;;;;;;;4.90;3.40;;;;;;;29.62;41.28;98612.63;5148429;27;20127;-71
2022/07/25 06:06:34;;;;;;;7.20;3.35;;;;;;;29.46;41.54;98619.94;5148522;28;20140;-71
2022/07/25 06:09:00;;;;;;;4.28;3.17;;;;;;;29.34;41.66;98615.53;5148428;28;20019;-70
2022/07/25 06:11:29;;;;;;;4.18;3.15;;;;;;;29.47;41.19;98619.69;5148444;28;20080;-71
2022/07/25 06:13:55;;;;;;;5.28;3.33;;;;;;;29.66;41.25;98613.72;5147426;28;20031;-70
2022/07/25 06:16:20;;;;;;;5.72;3.47;;;;;;;29.48;41.63;98610.44;5148356;28;20042;-71
2022/07/25 06:18:46;;;;;;;6.75;3.10;;;;;;;29.37;41.80;98612.28;5148275;27;20216;-71
2022/07/25 06:21:11;;;;;;;8.27;3.30;;;;;;;29.43;41.49;98613.13;5148295;28;20015;-72
2022/07/25 06:23:37;;;;;;;4.80;3.65;;;;;;;29.41;41.60;98607.13;5148254;27;20019;-72
2022/07/25 06:26:02;;;;;;;4.43;3.47;;;;;;;29.34;41.81;98601.06;5130607;27;20019;-72
2022/07/25 06:28:28;;;;;;;8.15;3.08;;;;;;;29.28;42.17;98613.03;5152088;27;20097;-72
2022/07/25 06:30:54;;;;;;;4.55;3.58;;;;;;;29.23;42.13;98620.09;5152031;27;20042;-72
2022/07/25 06:33:19;;;;;;;6.10;3.28;;;;;;;29.19;42.04;98615.47;5151762;27;20086;-71
2022/07/25 06:35:45;;;;;;;5.80;3.45;;;;;;;29.14;42.41;98616.25;5152054;27;20263;-72
2022/07/25 06:38:10;;;;;;;6.10;3.80;;;;;;;29.08;42.08;98623.59;5141276;27;20016;-72
2022/07/25 06:40:36;;;;;;;8.43;3.47;;;;;;;29.05;42.04;98618.66;5131161;28;20024;-71
2022/07/25 06:43:01;;;;;;;5.05;3.60;;;;;;;29.05;42.22;98617.84;5132866;27;20110;-71
2022/07/25 06:45:27;;;;;;;7.60;4.30;;;;;;;29.03;42.28;98620.84;5148864;27;20034;-72
2022/07/25 06:47:52;;;;;;;3.70;3.03;;;;;;;29.04;42.57;98618.94;5158720;27;20018;-71
2022/07/25 06:50:18;;;;;;;4.38;3.50;;;;;;;29.02;42.56;98613.75;5151709;27;20079;-72
2022/07/25 06:52:44;;;;;;;5.88;3.28;;;;;;;29.00;42.39;98613.19;5150942;27;20041;-72
2022/07/25 06:55:12;;;;;;;5.70;4.10;;;;;;;28.97;42.48;98621.06;5149868;27;20080;-72
2022/07/25 06:57:37;;;;;;;4.25;3.70;;;;;;;28.96;42.68;98616.72;5151574;27;20053;-71
2022/07/25 07:00:08;;;;;;;6.63;3.58;;;;;;;28.96;42.84;98614.81;5151568;27;20216;-71
2022/07/25 07:02:50;;;;;;;7.68;4.53;;;;;;;28.96;42.77;98614.81;5151058;27;20038;-72
2022/07/25 07:05:16;;;;;;;4.57;3.38;;;;;;;28.95;42.35;98615.91;5130931;28;20035;-72
2022/07/25 07:07:41;;;;;;;4.68;3.28;;;;;;;28.93;42.57;98616.16;5137377;27;20088;-72
2022/07/25 07:10:07;;;;;;;3.70;3.40;;;;;;;28.89;42.74;98620.50;5142867;27;20062;-73
2022/07/25 07:12:32;;;;;;;6.38;3.95;;;;;;;28.87;42.48;98622.69;5130685;28;20020;-72
2022/07/25 07:14:58;;;;;;;5.00;3.80;;;;;;;28.84;42.67;98625.09;5130705;28;20217;-72
2022/07/25 07:17:24;;;;;;;5.80;4.28;;;;;;;28.84;42.65;98620.47;5142998;27;20056;-72
2022/07/25 07:19:49;;;;;;;5.45;3.42;;;;;;;28.83;42.84;98621.56;5150896;27;20153;-71
2022/07/25 07:22:26;;;;;;;6.68;4.75;;;;;;;28.84;43.02;98622.38;5151121;27;20035;-71
2022/07/25 07:24:52;;;;;;;6.05;3.88;;;;;;;28.88;42.64;98627.03;5151158;27;20064;-71
2022/07/25 07:27:18;;;;;;;5.97;4.05;;;;;;;28.87;42.81;98614.50;5141591;27;20133;-71
2022/07/25 07:29:43;;;;;;;5.10;3.63;;;;;;;28.88;42.56;98626.19;5150462;27;20019;-71
2022/07/25 07:32:08;;;;;;;6.00;3.25;;;;;;;28.84;42.50;98634.09;5150643;27;20054;-71
2022/07/25 07:34:34;;;;;;;4.00;3.30;;;;;;;28.83;42.53;98626.16;5150718;27;20019;-71
2022/07/25 07:37:00;;;;;;;5.45;3.60;;;;;;;28.80;42.70;98637.59;5149982;27;20010;-71
2022/07/25 07:39:25;;;;;;;13.15;4.40;;;;;;;28.82;43.28;98633.53;5167632;27;20030;-71
2022/07/25 07:41:51;;;;;;;5.30;3.78;;;;;;;28.81;42.71;98629.16;5171545;27;20022;-71
2022/07/25 07:44:17;;;;;;;8.60;4.05;;;;;;;28.80;42.87;98627.53;5150505;27;20315;-69
2022/07/25 07:46:42;;;;;;;7.50;3.80;;;;;;;28.79;43.01;98617.72;5150594;27;20169;-71
2022/07/25 07:49:07;;;;;;;5.38;3.60;;;;;;;28.80;43.03;98626.72;5138420;27;20019;-70
2022/07/25 07:51:33;;;;;;;5.47;3.75;;;;;;;28.79;42.68;98631.31;5130083;28;20069;-71
2022/07/25 07:56:44;;;;;;;4.47;3.92;;;;;;;28.79;42.86;98623.16;5150514;27;20018;-70
2022/07/25 07:59:10;;;;;;;4.63;3.90;;;;;;;28.77;43.19;98623.44;5150363;27;20086;-71
2022/07/25 08:01:35;;;;;;;6.15;4.20;;;;;;;28.77;42.82;98622.59;5149328;27;20080;-70
2022/07/25 08:04:00;;;;;;;6.50;4.05;;;;;;;28.75;42.98;98622.88;5148800;27;20080;-70
2022/07/25 08:06:26;;;;;;;5.45;3.45;;;;;;;28.75;42.70;98620.16;5150055;27;20091;-70
2022/07/25 08:08:52;;;;;;;6.78;4.18;;;;;;;28.77;43.25;98609.81;5150251;27;20023;-71
2022/07/25 08:11:17;;;;;;;5.40;4.43;;;;;;;28.80;42.74;98615.81;5149999;27;20232;-71
2022/07/25 08:13:43;;;;;;;6.00;3.83;;;;;;;28.78;42.93;98616.06;5148989;27;20034;-71
2022/07/25 08:16:10;;;;;;;5.18;4.10;;;;;;;28.78;42.57;98621.53;5143993;27;20046;-71
2022/07/25 08:18:36;;;;;;;6.20;3.83;;;;;;;28.77;43.10;98612.53;5144432;27;20039;-71
2022/07/25 08:21:04;;;;;;;6.43;4.32;;;;;;;28.75;43.17;98619.31;5149593;27;20023;-71
2022/07/25 08:23:31;;;;;;;6.70;4.55;;;;;;;28.71;43.01;98618.19;5149912;27;20094;-71
2022/07/25 08:25:57;;;;;;;6.15;3.75;;;;;;;28.68;43.24;98618.72;5149352;27;20018;-71
2022/07/25 08:28:22;;;;;;;4.97;4.30;;;;;;;28.67;42.98;98611.63;5149039;27;20304;-71
2022/07/25 08:30:48;;;;;;;9.00;5.03;;;;;;;28.65;43.09;98614.63;5149643;27;20094;-71
2022/07/25 08:33:16;;;;;;;13.75;4.50;;;;;;;28.67;43.52;98617.06;5148829;27;20281;-70
2022/07/25 08:36:00;;;;;;;8.65;4.88;;;;;;;28.69;42.93;98621.16;5149626;27;20026;-70
2022/07/25 08:38:27;;;;;;;6.55;4.55;;;;;;;28.67;43.15;98617.06;5149431;27;20229;-69
2022/07/25 08:40:54;;;;;;;8.57;5.28;;;;;;;28.60;42.83;98617.31;5149403;27;20094;-70
2022/07/25 08:43:19;;;;;;;6.07;4.10;;;;;;;28.57;42.83;98621.38;5149489;27;20030;-69
2022/07/25 08:45:48;;;;;;;5.22;4.20;;;;;;;28.57;43.20;98628.72;5149428;27;20027;-67
2022/07/25 08:48:16;;;;;;;7.32;4.43;;;;;;;28.57;42.90;98618.66;5148903;27;20023;-70
2022/07/25 08:50:42;;;;;;;12.25;5.15;;;;;;;28.58;43.52;98620.28;5148390;27;20023;-69
2022/07/25 08:53:08;;;;;;;5.35;4.15;;;;;;;28.58;43.04;98620.28;5149192;27;20037;-69
2022/07/25 08:55:33;;;;;;;6.05;4.00;;;;;;;28.57;43.09;98624.09;5149424;27;20041;-69
2022/07/25 08:57:59;;;;;;;5.90;4.38;;;;;;;28.60;42.96;98622.75;5148540;27;20034;-68
2022/07/25 09:00:27;;;;;;;5.97;3.97;;;;;;;28.64;42.96;98618.44;5151427;27;20022;-70
2022/07/25 09:03:00;;;;;;;7.72;4.05;;;;;;;28.65;42.75;98620.06;5148327;27;20029;-70
2022/07/25 09:05:28;;;;;;;7.50;5.28;;;;;;;28.66;43.04;98623.59;5147657;27;20058;-70
2022/07/25 09:07:55;;;;;;;6.30;3.78;;;;;;;28.66;43.00;98626.31;5148122;27;20030;-69
2022/07/25 09:10:25;;;;;;;6.30;3.85;;;;;;;28.67;42.51;98617.06;5146975;27;20027;-71
2022/07/25 09:13:06;;;;;;;4.32;3.78;;;;;;;28.65;42.34;98616.50;5147727;27;20224;-69
2022/07/25 09:15:39;;;;;;;5.00;4.05;;;;;;;28.64;42.04;98615.72;5148346;27;20019;-70
2022/07/25 09:18:09;;;;;;;7.20;4.00;;;;;;;28.63;41.81;98611.34;5147494;27;20023;-68
2022/07/25 09:20:48;;;;;;;11.82;5.28;;;;;;;28.62;42.65;98629.56;5151260;27;20023;-69
2022/07/25 09:23:27;;;;;;;8.80;5.25;;;;;;;28.58;42.83;98616.75;5143990;27;20109;-70
2022/07/25 09:26:07;;;;;;;8.63;4.30;;;;;;;28.55;43.18;98615.38;5148597;27;20022;-69
2022/07/25 09:28:48;;;;;;;5.40;4.45;;;;;;;28.55;43.48;98622.69;5147667;27;20083;-70
2022/07/25 09:31:16;;;;;;;8.48;5.20;;;;;;;28.48;43.61;98610.16;5147901;27;20258;-70
2022/07/25 09:34:00;;;;;;;7.85;4.68;;;;;;;28.46;43.54;98617.75;5147400;27;20276;-71
2022/07/25 09:36:26;;;;;;;5.28;4.53;;;;;;;28.42;43.88;98613.91;5146317;27;20035;-71
2022/07/25 09:38:56;;;;;;;7.25;4.60;;;;;;;28.39;43.45;98614.44;5147377;27;20296;-72
2022/07/25 09:41:39;;;;;;;10.13;4.90;;;;;;;28.38;43.53;98610.06;5149522;27;20035;-70
2022/07/25 09:44:31;;;;;;;6.53;4.57;;;;;;;28.40;43.99;98615.25;5152063;27;20208;-71
2022/07/25 09:47:00;;;;;;;7.45;4.15;;;;;;;28.35;44.05;98607.88;5147904;28;20022;-71
2022/07/25 09:49:35;;;;;;;11.18;5.65;;;;;;;28.33;44.03;98610.84;5147903;27;20047;-70
2022/07/25 09:52:01;;;;;;;5.57;4.28;;;;;;;28.32;43.70;98611.94;5147414;27;20082;-70
2022/07/25 09:54:29;;;;;;;6.97;4.82;;;;;;;28.32;44.27;98617.38;5147794;28;20287;-70
2022/07/25 09:56:54;;;;;;;5.13;4.28;;;;;;;28.31;44.02;98612.22;5146872;28;20027;-70
2022/07/25 09:59:22;;;;;;;7.18;4.65;;;;;;;28.30;44.30;98605.13;5146687;28;20026;-70
2022/07/25 10:02:07;;;;;;;7.50;4.15;;;;;;;28.28;44.05;98616.28;5148732;27;20090;-71
2022/07/25 10:05:10;;;;;;;9.35;4.88;;;;;;;28.28;44.01;98610.84;5151065;27;20026;-71
2022/07/25 10:07:38;;;;;;;5.40;4.07;;;;;;;28.27;44.22;98609.19;5151834;27;20031;-72
2022/07/25 10:10:04;;;;;;;7.03;4.60;;;;;;;28.29;44.41;98611.63;5153321;27;20050;-71
2022/07/25 10:12:30;;;;;;;11.20;4.65;;;;;;;28.31;44.16;98601.31;5156118;27;20030;-71
2022/07/25 10:15:11;;;;;;;7.25;4.80;;;;;;;28.35;44.36;98605.19;5135263;27;20022;-72
2022/07/25 10:17:37;;;;;;;;;;;;;;;28.29;44.09;98606.19;5152543;27;20139;-71
2022/07/25 10:20:05;;;;;;;9.27;4.47;;;;;;;28.28;44.39;98604.56;5150713;27;19903;-71
2022/07/25 10:22:44;;;;;;;8.40;4.55;;;;;;;28.29;43.86;98606.19;5150364;27;20019;-72
2022/07/25 10:25:13;;;;;;;7.40;5.10;;;;;;;28.28;44.09;98604.56;5143754;27;20019;-70
2022/07/25 10:27:51;;;;;;;5.47;4.40;;;;;;;28.28;43.76;98605.41;5148764;27;20136;-70
2022/07/25 10:30:22;;;;;;;10.70;5.00;;;;;;;28.28;44.11;98610.00;5140536;27;20145;-72
2022/07/25 10:33:17;;;;;;;5.18;4.53;;;;;;;28.30;43.93;98605.13;5151433;27;20045;-70
2022/07/25 10:35:44;;;;;;;12.45;4.80;;;;;;;28.28;44.20;98599.97;5160735;27;20111;-71
2022/07/25 10:38:10;;;;;;;9.13;5.00;;;;;;;28.26;44.22;98591.22;5149716;27;20023;-70
2022/07/25 10:40:47;;;;;;;11.35;5.55;;;;;;;28.26;43.91;98591.22;5132336;27;20180;-69
2022/07/25 10:43:12;;;;;;;9.93;9.00;;;;;;;28.24;44.51;98590.66;5132119;27;20110;-70
2022/07/25 10:45:47;;;;;;;11.82;7.88;;;;;;;28.24;44.29;98593.38;5152224;27;20058;-70
2022/07/25 10:48:24;;;;;;;12.13;6.85;;;;;;;28.23;44.74;98591.75;5150074;27;20027;-70
2022/07/25 10:51:01;;;;;;;8.63;6.50;;;;;;;28.25;44.74;98596.91;5151494;27;20026;-71
2022/07/25 10:53:37;;;;;;;7.05;6.30;;;;;;;28.27;44.56;98592.88;5150522;27;20026;-70
2022/07/25 10:56:14;;;;;;;11.43;6.47;;;;;;;28.28;43.85;98599.13;5151462;27;20027;-69
2022/07/25 10:58:46;;;;;;;8.20;6.07;;;;;;;28.26;43.77;98598.56;5150064;27;20031;-70
2022/07/25 11:01:13;;;;;;;7.43;5.55;;;;;;;28.25;43.83;98596.91;5149999;27;20094;-68
2022/07/25 11:03:43;;;;;;;9.18;5.72;;;;;;;28.26;44.01;98591.22;5150539;27;20030;-71
2022/07/25 11:06:16;;;;;;;7.38;5.20;;;;;;;28.25;44.19;98588.75;5148006;27;20072;-70
2022/07/25 11:08:43;;;;;;;5.95;4.82;;;;;;;28.25;43.79;98589.59;5149603;27;20037;-69
2022/07/25 11:11:18;;;;;;;9.20;4.63;;;;;;;28.27;43.40;98587.44;5155854;27;20208;-69
2022/07/25 11:13:43;;;;;;;6.82;4.75;;;;;;;28.29;43.53;98589.88;5145622;27;20071;-70
2022/07/25 11:16:09;;;;;;;6.35;5.10;;;;;;;28.31;43.41;98587.72;5139757;27;20078;-69
2022/07/25 11:18:37;;;;;;;8.43;4.95;;;;;;;28.30;43.17;98586.91;5154148;27;20019;-70
2022/07/25 11:21:08;;;;;;;4.97;4.28;;;;;;;28.30;43.29;98583.38;5151352;27;20027;-69
2022/07/25 11:23:39;;;;;;;4.50;4.10;;;;;;;28.25;43.66;98573.28;5150382;27;20060;-71
2022/07/25 11:26:43;;;;;;;5.22;4.45;;;;;;;28.29;43.66;98573.56;5149332;27;20047;-69
2022/07/25 11:29:20;;;;;;;4.80;4.07;;;;;;;28.26;43.77;98582.25;5149187;27;20071;-70
2022/07/25 11:31:59;;;;;;;6.57;4.25;;;;;;;28.28;43.38;98572.75;5149014;27;20086;-69
2022/07/25 11:34:29;;;;;;;8.68;4.45;;;;;;;28.28;43.47;98572.75;5148903;27;20063;-70
2022/07/25 11:36:57;;;;;;;15.63;4.80;;;;;;;28.28;43.67;98569.19;5149146;27;20019;-71
2022/07/25 11:39:26;;;;;;;10.07;4.63;;;;;;;28.29;43.63;98579.00;5150696;27;20241;-72
2022/07/25 11:42:18;;;;;;;4.88;4.38;;;;;;;28.30;43.32;98569.75;5150511;27;20038;-71